Time;durP1;ratioP1;P1;durP2;ratioP2;P2;SDS_P1;SDS_P2;PMS_P1;PMS_P2;Temp;Humidity;BMP_temperature;BMP_pressure;BME280_temperature;BME280_humidity;BME280_pressure;Samples;Min_cycle;Max_cycle;Signal;HPM_P1;HPM_P2
2022/09/10 00:01:29;;;;;;;23.63;18.65;;;;;;;;;;4994506;28;20038;-73
2022/09/10 00:03:56;;;;;;;20.77;17.48;;;;;;;;;;4974273;29;20054;-73
2022/09/10 00:06:24;;;;;;;24.45;17.60;;;;;;;;;;4978928;28;20091;-73
2022/09/10 00:09:13;;;;;;;20.60;17.20;;;;;;;;;;4958840;29;20612;-73
2022/09/10 00:11:46;;;;;;;21.92;16.95;;;;;;;;;;4973873;29;20058;-74
2022/09/10 00:14:14;;;;;;;22.25;17.27;;;;;;;;;;4973105;29;20035;-72
2022/09/10 00:16:40;;;;;;;24.08;17.20;;;;;;;;;;4975432;28;20059;-72
2022/09/10 00:19:06;;;;;;;23.42;16.63;;;;;;;;;;4982324;28;20037;-73
2022/09/10 00:21:33;;;;;;;20.52;15.60;;;;;;;;;;4977900;28;20043;-73
2022/09/10 00:24:00;;;;;;;24.63;16.15;;;;;;;;;;4995110;28;20026;-73
2022/09/10 00:27:00;;;;;;;18.40;15.40;;;;;;;;;;4995940;28;20031;-72
2022/09/10 00:29:26;;;;;;;21.17;15.85;;;;;;;;;;4993970;28;20119;-73
2022/09/10 00:31:53;;;;;;;20.40;15.70;;;;;;;;;;4992991;28;20033;-72
2022/09/10 00:34:19;;;;;;;18.42;15.00;;;;;;;;;;4996661;28;20023;-72
2022/09/10 00:36:46;;;;;;;20.08;15.50;;;;;;;;;;4984290;28;20033;-73
2022/09/10 00:39:16;;;;;;;20.05;15.90;;;;;;;;;;5012992;28;20058;-73
2022/09/10 00:41:46;;;;;;;19.33;14.95;;;;;;;;;;5005286;28;20041;-73
2022/09/10 00:44:30;;;;;;;19.73;15.25;;;;;;;;;;5008514;28;20095;-73
2022/09/10 00:46:58;;;;;;;18.58;14.52;;;;;;;;;;4992371;28;20027;-73
2022/09/10 00:49:31;;;;;;;18.70;13.75;;;;;;;;;;4985284;28;20027;-73
2022/09/10 00:51:58;;;;;;;18.25;14.73;;;;;;;;;;4983866;28;20016;-72
2022/09/10 00:54:25;;;;;;;20.35;14.85;;;;;;;;;;4988183;28;20019;-72
2022/09/10 00:57:01;;;;;;;21.15;15.13;;;;;;;;;;5003531;28;20022;-72
2022/09/10 00:59:46;;;;;;;25.30;16.45;;;;;;;;;;5003343;28;20031;-72
2022/09/10 01:02:54;;;;;;;27.30;16.73;;;;;;;;;;5000571;28;20026;-72
2022/09/10 01:05:49;;;;;;;25.23;16.90;;;;;;;;;;4954663;29;20104;-73
2022/09/10 01:08:16;;;;;;;28.08;17.35;;;;;;;;;;4963017;28;20040;-72
2022/09/10 01:10:49;;;;;;;29.27;17.35;;;;;;;;;;4962961;28;20057;-72
2022/09/10 01:13:21;;;;;;;29.10;17.23;;;;;;;;;;4962200;28;20076;-72
2022/09/10 01:15:47;;;;;;;27.38;17.55;;;;;;;;;;4956274;29;20032;-72
2022/09/10 01:18:24;;;;;;;29.48;18.25;;;;;;;;;;4962310;29;20073;-73
2022/09/10 01:21:09;;;;;;;27.23;18.33;;;;;;;;;;5009589;23;20038;-73
2022/09/10 01:23:41;;;;;;;30.17;19.38;;;;;;;;;;5022715;28;20014;-73
2022/09/10 01:26:10;;;;;;;30.25;20.77;;;;;;;;;;5020099;28;20018;-73
2022/09/10 01:28:40;;;;;;;31.30;20.65;;;;;;;;;;5020421;28;20037;-72
2022/09/10 01:31:25;;;;;;;32.55;21.63;;;;;;;;;;5004464;28;20034;-73
2022/09/10 01:34:06;;;;;;;36.42;22.42;;;;;;;;;;5020012;28;20025;-72
2022/09/10 01:36:35;;;;;;;33.40;22.08;;;;;;;;;;5019501;28;20023;-73
2022/09/10 01:39:13;;;;;;;36.03;23.67;;;;;;;;;;5020095;28;20030;-73
2022/09/10 01:41:59;;;;;;;35.22;23.27;;;;;;;;;;5020065;28;20035;-72
2022/09/10 01:44:47;;;;;;;36.38;23.08;;;;;;;;;;5001842;28;20066;-72
2022/09/10 01:47:51;;;;;;;40.95;23.90;;;;;;;;;;5007230;28;20025;-72
2022/09/10 01:50:56;;;;;;;42.80;26.42;;;;;;;;;;5020972;28;20045;-72
2022/09/10 01:53:54;;;;;;;47.10;26.85;;;;;;;;;;5021248;28;20039;-72
2022/09/10 01:56:34;;;;;;;44.67;27.27;;;;;;;;;;4997288;28;20022;-72
2022/09/10 01:59:33;;;;;;;53.25;28.83;;;;;;;;;;4973730;29;20036;-72
2022/09/10 02:02:02;;;;;;;43.65;28.30;;;;;;;;;;4981922;28;20027;-72
2022/09/10 02:04:29;;;;;;;53.13;30.42;;;;;;;;;;4981779;28;20015;-73
2022/09/10 02:06:56;;;;;;;48.10;29.35;;;;;;;;;;4962845;29;20027;-73
2022/09/10 02:09:49;;;;;;;46.13;29.40;;;;;;;;;;4971886;28;20075;-72
2022/09/10 02:12:36;;;;;;;46.92;29.33;;;;;;;;;;4924019;29;20036;-72
2022/09/10 02:15:03;;;;;;;51.08;31.58;;;;;;;;;;4909752;29;20048;-73
2022/09/10 02:18:02;;;;;;;49.38;30.42;;;;;;;;;;4902170;29;20033;-72
2022/09/10 02:20:30;;;;;;;46.53;30.45;;;;;;;;;;5194921;23;20046;-73
2022/09/10 02:22:58;;;;;;;45.47;29.00;;;;;;;;;;5018516;28;20032;-73
2022/09/10 02:25:25;;;;;;;50.03;30.35;;;;;;;;;;5002014;28;20030;-72
2022/09/10 02:27:54;;;;;;;45.80;29.25;;;;;;;;;;5022927;28;20029;-72
2022/09/10 02:30:20;;;;;;;45.53;30.17;;;;;;;;;;4998660;28;20022;-73
2022/09/10 02:32:48;;;;;;;52.30;30.63;;;;;;;;;;5019357;28;20042;-73
2022/09/10 02:35:14;;;;;;;41.72;27.98;;;;;;;;;;5009468;28;20038;-73
2022/09/10 02:37:42;;;;;;;43.20;28.23;;;;;;;;;;5037702;28;20026;-73
2022/09/10 02:40:08;;;;;;;44.25;28.33;;;;;;;;;;5010964;28;20026;-73
2022/09/10 02:42:34;;;;;;;42.72;27.75;;;;;;;;;;5014194;28;20065;-73
2022/09/10 02:45:00;;;;;;;39.58;27.10;;;;;;;;;;4980440;28;20155;-73
2022/09/10 02:47:27;;;;;;;38.35;25.77;;;;;;;;;;4997517;28;20019;-73
2022/09/10 02:49:53;;;;;;;38.15;26.27;;;;;;;;;;4981861;28;20018;-73
2022/09/10 02:52:20;;;;;;;35.15;24.70;;;;;;;;;;5021473;28;20399;-73
2022/09/10 02:55:07;;;;;;;40.97;26.95;;;;;;;;;;5031329;28;20052;-72
2022/09/10 02:57:39;;;;;;;44.30;27.63;;;;;;;;;;4989410;28;20033;-72
2022/09/10 03:00:27;;;;;;;40.50;27.10;;;;;;;;;;5020842;28;20026;-71
2022/09/10 03:03:02;;;;;;;41.97;27.98;;;;;;;;;;4925094;29;20061;-72
2022/09/10 03:05:28;;;;;;;47.20;28.63;;;;;;;;;;4920308;29;20033;-73
2022/09/10 03:07:55;;;;;;;44.83;29.48;;;;;;;;;;4920494;29;20037;-73
2022/09/10 03:10:23;;;;;;;46.20;29.80;;;;;;;;;;4922290;29;20024;-74
2022/09/10 03:12:49;;;;;;;46.05;30.17;;;;;;;;;;4925252;29;20035;-72
2022/09/10 03:15:16;;;;;;;45.00;29.15;;;;;;;;;;4922087;29;20051;-73
2022/09/10 03:17:42;;;;;;;42.08;27.63;;;;;;;;;;4936938;29;20036;-72
2022/09/10 03:20:09;;;;;;;41.33;27.38;;;;;;;;;;4922741;29;20087;-73
2022/09/10 03:22:35;;;;;;;40.10;26.98;;;;;;;;;;4916797;29;20132;-72
2022/09/10 03:25:01;;;;;;;41.03;26.63;;;;;;;;;;4901176;29;20040;-72
2022/09/10 03:27:27;;;;;;;35.60;25.15;;;;;;;;;;4903350;29;20029;-73
2022/09/10 03:30:16;;;;;;;44.13;27.25;;;;;;;;;;4899963;29;20013;-72
2022/09/10 03:32:44;;;;;;;36.85;24.98;;;;;;;;;;4906424;29;20025;-73
2022/09/10 03:35:12;;;;;;;40.92;25.70;;;;;;;;;;4904639;29;20021;-72
2022/09/10 03:37:38;;;;;;;39.38;24.27;;;;;;;;;;4902349;29;20021;-72
2022/09/10 03:40:07;;;;;;;36.30;24.15;;;;;;;;;;4946286;29;20049;-73
2022/09/10 03:42:35;;;;;;;36.10;23.38;;;;;;;;;;4994404;28;20030;-73
2022/09/10 03:45:12;;;;;;;33.08;23.25;;;;;;;;;;4997123;28;20018;-72
2022/09/10 03:47:39;;;;;;;33.88;21.17;;;;;;;;;;5000102;28;20026;-72
2022/09/10 03:50:05;;;;;;;33.75;22.27;;;;;;;;;;4995195;28;20026;-73
2022/09/10 03:52:34;;;;;;;29.08;20.58;;;;;;;;;;4995239;28;20062;-73
2022/09/10 03:55:00;;;;;;;31.40;19.45;;;;;;;;;;4996212;28;20053;-73
2022/09/10 03:57:29;;;;;;;28.73;19.80;;;;;;;;;;5000264;28;20011;-72
2022/09/10 03:59:55;;;;;;;29.63;18.83;;;;;;;;;;4983322;28;20061;-72
2022/09/10 04:02:21;;;;;;;27.38;17.85;;;;;;;;;;4999991;28;20027;-72
2022/09/10 04:04:47;;;;;;;27.85;17.92;;;;;;;;;;4990355;28;20051;-72
2022/09/10 04:07:35;;;;;;;24.27;16.75;;;;;;;;;;4937421;29;20095;-73
2022/09/10 04:10:02;;;;;;;23.45;16.30;;;;;;;;;;4939620;29;20017;-73
2022/09/10 04:12:30;;;;;;;23.15;15.02;;;;;;;;;;4941505;29;20091;-72
2022/09/10 04:14:56;;;;;;;23.58;15.45;;;;;;;;;;4918986;29;20131;-73
2022/09/10 04:17:23;;;;;;;18.70;15.55;;;;;;;;;;4930334;29;20046;-73
2022/09/10 04:19:49;;;;;;;19.70;15.63;;;;;;;;;;4939690;29;20027;-75
2022/09/10 04:22:16;;;;;;;21.35;15.93;;;;;;;;;;4952235;29;20031;-72
2022/09/10 04:24:43;;;;;;;24.88;16.15;;;;;;;;;;4960040;28;20027;-72
2022/09/10 04:27:09;;;;;;;21.10;16.40;;;;;;;;;;4943700;29;20024;-72
2022/09/10 04:29:36;;;;;;;22.33;16.77;;;;;;;;;;4958849;28;20044;-72
2022/09/10 04:32:03;;;;;;;23.38;16.55;;;;;;;;;;4941562;29;20162;-72
2022/09/10 04:34:29;;;;;;;20.10;16.02;;;;;;;;;;4952699;29;20088;-73
2022/09/10 04:36:55;;;;;;;19.75;16.30;;;;;;;;;;4940321;29;20077;-72
2022/09/10 04:39:21;;;;;;;21.67;16.27;;;;;;;;;;4923637;29;20088;-73
2022/09/10 04:41:47;;;;;;;18.67;15.90;;;;;;;;;;4931746;29;20541;-72
2022/09/10 04:44:13;;;;;;;21.23;15.68;;;;;;;;;;4955368;28;20042;-72
2022/09/10 04:46:40;;;;;;;20.30;14.55;;;;;;;;;;5057625;23;20062;-71
2022/09/10 04:49:06;;;;;;;22.33;15.30;;;;;;;;;;4992077;28;20030;-71
2022/09/10 04:51:47;;;;;;;16.27;14.48;;;;;;;;;;5012997;28;20023;-77
2022/09/10 04:54:22;;;;;;;16.05;13.18;;;;;;;;;;5008483;28;20053;-75
2022/09/10 04:56:51;;;;;;;16.27;12.15;;;;;;;;;;5001230;28;20065;-75
2022/09/10 04:59:17;;;;;;;13.23;10.82;;;;;;;;;;4986894;28;20030;-75
2022/09/10 05:01:43;;;;;;;13.30;10.38;;;;;;;;;;5004909;28;20699;-73
2022/09/10 05:04:13;;;;;;;13.07;9.88;;;;;;;;;;5015747;28;20081;-77
2022/09/10 05:06:43;;;;;;;12.02;9.70;;;;;;;;;;5029617;28;20033;-73
2022/09/10 05:09:13;;;;;;;12.50;9.23;;;;;;;;;;5018544;28;20029;-72
2022/09/10 05:11:39;;;;;;;13.25;9.38;;;;;;;;;;5006265;28;20054;-73
2022/09/10 05:14:06;;;;;;;13.00;8.85;;;;;;;;;;5009365;28;20082;-73
2022/09/10 05:16:32;;;;;;;15.32;10.02;;;;;;;;;;5009172;28;20034;-73
2022/09/10 05:18:58;;;;;;;10.13;7.80;;;;;;;;;;4992025;28;20034;-74
2022/09/10 05:21:25;;;;;;;14.40;10.48;;;;;;;;;;4990114;28;20089;-73
2022/09/10 05:23:51;;;;;;;12.40;8.55;;;;;;;;;;4997865;28;20050;-74
2022/09/10 05:26:42;;;;;;;13.00;8.57;;;;;;;;;;4975249;28;20087;-77
2022/09/10 05:34:47;;;;;;;12.32;8.38;;;;;;;;;;5259454;23;20065;-78
2022/09/10 05:37:17;;;;;;;10.93;8.53;;;;;;;;;;5009672;28;20034;-74
2022/09/10 05:39:45;;;;;;;14.55;8.90;;;;;;;;;;5012467;28;20049;-76
2022/09/10 05:42:11;;;;;;;11.98;9.25;;;;;;;;;;4989615;28;20026;-75
2022/09/10 05:44:37;;;;;;;11.07;8.60;;;;;;;;;;5009825;28;19999;-75
2022/09/10 05:47:03;;;;;;;10.10;8.00;;;;;;;;;;4995465;28;20045;-74
2022/09/10 05:49:41;;;;;;;11.52;7.85;;;;;;;;;;5013891;28;20014;-75
2022/09/10 05:52:20;;;;;;;10.30;6.63;;;;;;;;;;5014236;28;20038;-74
2022/09/10 05:54:46;;;;;;;9.57;6.30;;;;;;;;;;5009109;28;20055;-74
2022/09/10 06:06:06;;;;;;;8.63;5.18;;;;;;;;;;4855394;26;20080;-80
2022/09/10 06:08:52;;;;;;;7.38;4.70;;;;;;;;;;4943021;28;20040;-75
2022/09/10 06:11:18;;;;;;;13.73;9.38;;;;;;;;;;5218352;23;20073;-77
2022/09/10 06:13:45;;;;;;;10.55;5.57;;;;;;;;;;4995668;28;20030;-76
2022/09/10 06:16:11;;;;;;;9.77;5.45;;;;;;;;;;5000507;28;20113;-76
2022/09/10 06:18:37;;;;;;;10.52;5.07;;;;;;;;;;5001796;28;20066;-76
2022/09/10 06:29:47;;;;;;;9.20;4.78;;;;;;;;;;5554018;23;20039;-77
2022/09/10 06:32:38;;;;;;;6.47;3.70;;;;;;;;;;4960963;28;20031;-79
2022/09/10 06:35:22;;;;;;;7.15;3.70;;;;;;;;;;4951480;29;20012;-77
2022/09/10 06:43:59;;;;;;;5.07;2.60;;;;;;;;;;5003995;28;20056;-84
2022/09/10 06:46:46;;;;;;;4.35;2.42;;;;;;;;;;5004620;28;20026;-81
2022/09/10 06:52:18;;;;;;;4.50;2.85;;;;;;;;;;5012941;28;20541;-86
2022/09/10 06:54:59;;;;;;;4.25;3.70;;;;;;;;;;5000279;28;20030;-85
2022/09/10 06:57:25;;;;;;;4.05;3.38;;;;;;;;;;4957561;28;20031;-86
2022/09/10 06:59:51;;;;;;;3.50;2.63;;;;;;;;;;4938196;29;20039;-82
2022/09/10 07:02:17;;;;;;;3.72;2.70;;;;;;;;;;4952269;28;20099;-80
2022/09/10 07:04:43;;;;;;;6.47;2.92;;;;;;;;;;4958233;28;20031;-77
2022/09/10 07:07:10;;;;;;;5.38;3.15;;;;;;;;;;4961695;28;20039;-89
2022/09/10 07:29:30;;;;;;;7.18;4.28;;;;;;;;;;5082355;23;20098;-75
2022/09/10 07:31:59;;;;;;;9.30;4.72;;;;;;;;;;4983647;28;20027;-75
2022/09/10 07:34:39;;;;;;;7.82;4.90;;;;;;;;;;4972952;28;20035;-76
2022/09/10 07:37:06;;;;;;;7.88;5.53;;;;;;;;;;4969763;28;20122;-75
2022/09/10 07:39:32;;;;;;;9.00;6.60;;;;;;;;;;4973393;28;20020;-76
2022/09/10 07:50:10;;;;;;;5.93;4.68;;;;;;;;;;5807890;23;20282;-78
2022/09/10 07:53:23;;;;;;;10.00;5.10;;;;;;;;;;4915219;29;20029;-78
2022/09/10 07:56:03;;;;;;;7.13;4.63;;;;;;;;;;4912517;29;20044;-78
2022/09/10 07:58:52;;;;;;;5.87;4.57;;;;;;;;;;4920491;29;20009;-78
2022/09/10 08:01:41;;;;;;;8.48;4.72;;;;;;;;;;4997462;23;20059;-75
2022/09/10 08:04:07;;;;;;;8.05;5.00;;;;;;;;;;4957013;29;20438;-74
2022/09/10 08:06:33;;;;;;;7.13;4.50;;;;;;;;;;4956754;29;20035;-73
2022/09/10 08:08:59;;;;;;;7.15;4.50;;;;;;;;;;4977778;28;20022;-74
2022/09/10 08:11:26;;;;;;;7.05;4.80;;;;;;;;;;4977545;28;20035;-74
2022/09/10 08:13:52;;;;;;;7.18;4.70;;;;;;;;;;4977877;29;20033;-74
2022/09/10 08:16:20;;;;;;;6.68;4.70;;;;;;;;;;4974878;29;20023;-75
2022/09/10 08:21:51;;;;;;;8.25;4.57;;;;;;;;;;4976569;28;20050;-74
2022/09/10 08:25:02;;;;;;;8.52;4.72;;;;;;;;;;4978862;28;20019;-74
2022/09/10 08:27:28;;;;;;;5.30;4.68;;;;;;;;;;4920647;29;20051;-74
2022/09/10 08:30:33;;;;;;;6.10;4.40;;;;;;;;;;4920060;29;20047;-74
2022/09/10 08:32:59;;;;;;;7.43;4.70;;;;;;;;;;4920858;29;20048;-74
2022/09/10 08:35:28;;;;;;;9.35;4.25;;;;;;;;;;4920592;29;20016;-75
2022/09/10 08:37:54;;;;;;;8.55;4.13;;;;;;;;;;4921511;29;20041;-75
2022/09/10 08:40:22;;;;;;;5.20;4.03;;;;;;;;;;4921443;29;20024;-74
2022/09/10 08:42:51;;;;;;;6.25;4.15;;;;;;;;;;4920830;29;20064;-74
2022/09/10 08:45:28;;;;;;;6.75;3.88;;;;;;;;;;4895331;29;20032;-74
2022/09/10 08:48:01;;;;;;;4.85;3.75;;;;;;;;;;4899399;29;20033;-84
2022/09/10 08:50:39;;;;;;;7.47;3.73;;;;;;;;;;4908926;29;20068;-80
2022/09/10 08:53:17;;;;;;;9.18;3.85;;;;;;;;;;4889249;29;20041;-82
2022/09/10 08:55:44;;;;;;;6.35;3.88;;;;;;;;;;4926724;29;20064;-80
2022/09/10 08:58:20;;;;;;;6.25;4.03;;;;;;;;;;4952400;28;20022;-75
2022/09/10 09:00:49;;;;;;;10.15;4.57;;;;;;;;;;4961917;29;20035;-74
2022/09/10 09:03:29;;;;;;;7.07;3.85;;;;;;;;;;4979961;28;20054;-74
2022/09/10 09:06:15;;;;;;;4.80;3.40;;;;;;;;;;4981389;28;20046;-75
2022/09/10 09:09:10;;;;;;;7.18;3.92;;;;;;;;;;4979945;28;20049;-75
2022/09/10 09:11:52;;;;;;;8.48;3.58;;;;;;;;;;4974556;29;20038;-80
2022/09/10 09:14:32;;;;;;;6.20;3.47;;;;;;;;;;4971556;29;20023;-81
2022/09/10 09:17:17;;;;;;;8.48;4.65;;;;;;;;;;4956960;29;20035;-76
2022/09/10 09:20:12;;;;;;;9.57;4.30;;;;;;;;;;4968825;28;20098;-77
2022/09/10 09:22:46;;;;;;;10.75;4.68;;;;;;;;;;4978872;29;20007;-73
2022/09/10 09:25:18;;;;;;;8.20;4.07;;;;;;;;;;4976666;29;20047;-73
2022/09/10 09:27:45;;;;;;;6.65;4.22;;;;;;;;;;4976928;29;20035;-73
2022/09/10 09:30:22;;;;;;;6.60;4.18;;;;;;;;;;4977407;29;20130;-72
2022/09/10 09:32:49;;;;;;;10.18;4.10;;;;;;;;;;4976431;29;20026;-72
2022/09/10 09:35:31;;;;;;;6.22;3.80;;;;;;;;;;4973999;29;20031;-72
2022/09/10 09:38:10;;;;;;;5.07;3.83;;;;;;;;;;4973052;29;20083;-72
2022/09/10 09:40:53;;;;;;;8.85;4.70;;;;;;;;;;4968890;29;20031;-73
2022/09/10 09:43:22;;;;;;;5.25;3.75;;;;;;;;;;4960835;28;20059;-73
2022/09/10 09:45:49;;;;;;;6.03;3.75;;;;;;;;;;4970096;29;20021;-74
2022/09/10 09:48:17;;;;;;;7.55;3.72;;;;;;;;;;4965465;29;20500;-76
2022/09/10 09:50:45;;;;;;;8.10;3.90;;;;;;;;;;4973894;29;20027;-75
2022/09/10 09:53:21;;;;;;;12.18;3.78;;;;;;;;;;4956254;29;20034;-82
2022/09/10 09:55:52;;;;;;;9.13;4.05;;;;;;;;;;4966039;29;20477;-85
2022/09/10 09:58:22;;;;;;;6.32;3.22;;;;;;;;;;4963263;29;20393;-86
2022/09/10 10:00:52;;;;;;;8.45;3.72;;;;;;;;;;4960218;29;20035;-83
2022/09/10 10:03:21;;;;;;;5.63;3.13;;;;;;;;;;4959905;28;20067;-79
2022/09/10 10:05:47;;;;;;;7.80;4.35;;;;;;;;;;4959233;29;20385;-74
2022/09/10 10:11:22;;;;;;;5.30;4.07;;;;;;;;;;4957335;28;20132;-86
2022/09/10 10:13:51;;;;;;;4.65;3.13;;;;;;;;;;4956831;28;20031;-88
2022/09/10 10:16:30;;;;;;;7.72;4.20;;;;;;;;;;4955380;29;20172;-80
2022/09/10 10:18:56;;;;;;;7.05;3.40;;;;;;;;;;4956502;29;20034;-88
2022/09/10 10:21:30;;;;;;;6.72;3.47;;;;;;;;;;4955830;29;20086;-89
2022/09/10 10:23:56;;;;;;;8.45;3.65;;;;;;;;;;4957897;29;20371;-84
2022/09/10 10:26:30;;;;;;;7.47;3.17;;;;;;;;;;4956708;28;20035;-85
2022/09/10 10:29:02;;;;;;;7.05;3.53;;;;;;;;;;4957238;29;20020;-80
2022/09/10 10:31:42;;;;;;;4.93;3.30;;;;;;;;;;4932561;29;20102;-88
2022/09/10 10:34:14;;;;;;;5.80;3.20;;;;;;;;;;4951283;29;20035;-89
2022/09/10 10:37:02;;;;;;;8.30;3.55;;;;;;;;;;4957362;29;20377;-84
2022/09/10 10:39:28;;;;;;;7.30;3.20;;;;;;;;;;4957008;29;20110;-84
2022/09/10 10:42:14;;;;;;;4.45;3.17;;;;;;;;;;4949390;28;20043;-81
2022/09/10 10:44:43;;;;;;;5.32;3.78;;;;;;;;;;4952714;29;20066;-74
2022/09/10 10:47:36;;;;;;;4.53;2.90;;;;;;;;;;4955435;29;20027;-75
2022/09/10 10:50:05;;;;;;;3.85;2.25;;;;;;;;;;4952957;29;20567;-74
2022/09/10 10:52:43;;;;;;;7.28;2.97;;;;;;;;;;4956088;29;20469;-86
2022/09/10 10:55:35;;;;;;;4.30;2.78;;;;;;;;;;4939143;29;20050;-87
2022/09/10 10:58:09;;;;;;;7.05;4.70;;;;;;;;;;4896146;29;20506;-74
2022/09/10 11:00:53;;;;;;;3.22;2.60;;;;;;;;;;4898078;29;20554;-90
2022/09/10 11:03:52;;;;;;;3.03;2.37;;;;;;;;;;4890219;29;20080;-87
2022/09/10 11:06:20;;;;;;;24.52;3.22;;;;;;;;;;4879357;29;20037;-79
2022/09/10 11:08:56;;;;;;;4.10;2.40;;;;;;;;;;4879498;29;20044;-76
2022/09/10 11:11:34;;;;;;;5.38;2.28;;;;;;;;;;4884485;29;20491;-77
2022/09/10 11:14:16;;;;;;;6.18;2.50;;;;;;;;;;4884002;29;20045;-86
2022/09/10 11:16:58;;;;;;;4.70;2.65;;;;;;;;;;4864979;29;20040;-83
2022/09/10 11:19:46;;;;;;;4.63;2.63;;;;;;;;;;4875102;29;20068;-75
2022/09/10 11:22:19;;;;;;;3.60;2.47;;;;;;;;;;4878657;29;20065;-76
2022/09/10 11:24:50;;;;;;;3.63;2.40;;;;;;;;;;4879560;29;20049;-76
2022/09/10 11:27:27;;;;;;;5.32;2.55;;;;;;;;;;4878739;29;20537;-78
2022/09/10 11:29:53;;;;;;;6.05;2.50;;;;;;;;;;4893608;29;20040;-81
2022/09/10 11:32:29;;;;;;;6.18;2.60;;;;;;;;;;4896589;29;20032;-75
2022/09/10 11:34:58;;;;;;;5.07;2.20;;;;;;;;;;4918366;29;20036;-74
2022/09/10 11:37:43;;;;;;;5.15;2.50;;;;;;;;;;4949374;29;20035;-75
2022/09/10 11:40:13;;;;;;;6.25;2.20;;;;;;;;;;4939023;29;20023;-80
2022/09/10 11:42:40;;;;;;;3.58;2.20;;;;;;;;;;4937643;29;20127;-76
2022/09/10 11:45:17;;;;;;;3.72;2.30;;;;;;;;;;4922856;29;20023;-78
2022/09/10 11:47:47;;;;;;;7.78;2.30;;;;;;;;;;4936142;29;20031;-77
2022/09/10 11:50:20;;;;;;;4.45;2.45;;;;;;;;;;4939311;29;20036;-83
2022/09/10 11:52:49;;;;;;;5.07;2.15;;;;;;;;;;4944193;29;20031;-81
2022/09/10 11:55:16;;;;;;;4.32;2.05;;;;;;;;;;4939014;28;20477;-83
2022/09/10 11:58:01;;;;;;;4.63;2.33;;;;;;;;;;4925418;29;20038;-82
2022/09/10 12:00:29;;;;;;;4.95;2.28;;;;;;;;;;4934964;29;20031;-82
2022/09/10 12:03:04;;;;;;;10.43;7.68;;;;;;;;;;4951765;29;20110;-76
2022/09/10 12:05:41;;;;;;;8.07;6.10;;;;;;;;;;4954317;29;20021;-76
2022/09/10 12:08:13;;;;;;;5.35;2.40;;;;;;;;;;4952361;28;20087;-76
2022/09/10 12:10:59;;;;;;;2.80;2.27;;;;;;;;;;4953701;29;20519;-86
2022/09/10 12:13:26;;;;;;;5.53;2.40;;;;;;;;;;4938656;29;20046;-80
2022/09/10 12:15:54;;;;;;;3.42;2.33;;;;;;;;;;4954643;29;20067;-80
2022/09/10 12:18:27;;;;;;;5.47;2.20;;;;;;;;;;4951329;28;20042;-84
2022/09/10 12:21:03;;;;;;;2.87;2.20;;;;;;;;;;4952464;28;20440;-75
2022/09/10 12:23:34;;;;;;;3.92;2.00;;;;;;;;;;4949170;29;20050;-83
2022/09/10 12:26:05;;;;;;;3.97;2.30;;;;;;;;;;4953188;29;20082;-78
2022/09/10 12:29:01;;;;;;;4.78;2.17;;;;;;;;;;4951967;28;20027;-77
2022/09/10 12:31:27;;;;;;;3.05;2.35;;;;;;;;;;4892199;29;20119;-80
2022/09/10 12:33:53;;;;;;;7.88;2.05;;;;;;;;;;4894887;29;20108;-85
2022/09/10 12:36:39;;;;;;;4.40;2.08;;;;;;;;;;4898336;29;20527;-76
2022/09/10 12:42:29;;;;;;;4.90;3.55;;;;;;;;;;4902166;29;20047;-87
2022/09/10 12:44:56;;;;;;;3.13;2.05;;;;;;;;;;4894754;29;20433;-88
2022/09/10 12:47:38;;;;;;;4.55;2.30;;;;;;;;;;4891034;29;20514;-86
2022/09/10 12:50:06;;;;;;;3.97;2.20;;;;;;;;;;4881081;29;20040;-83
2022/09/10 12:52:35;;;;;;;5.13;2.30;;;;;;;;;;4889129;29;20117;-88
2022/09/10 12:55:13;;;;;;;4.90;2.30;;;;;;;;;;4897962;29;20063;-87
2022/09/10 12:57:42;;;;;;;59.88;47.85;;;;;;;;;;4895010;29;20098;-82
2022/09/10 13:00:16;;;;;;;52.80;45.35;;;;;;;;;;4889927;29;20436;-87
2022/09/10 13:03:03;;;;;;;9.18;6.35;;;;;;;;;;4890371;29;20057;-79
2022/09/10 13:05:47;;;;;;;4.00;2.50;;;;;;;;;;4903957;29;20111;-87
2022/09/10 13:08:19;;;;;;;6.25;2.65;;;;;;;;;;4952410;29;20043;-77
2022/09/10 13:11:02;;;;;;;5.10;2.45;;;;;;;;;;4976314;28;20070;-84
2022/09/10 13:13:28;;;;;;;5.82;2.75;;;;;;;;;;4966477;28;20027;-76
2022/09/10 13:15:54;;;;;;;4.43;2.53;;;;;;;;;;4959717;29;20023;-79
2022/09/10 13:18:23;;;;;;;4.60;2.70;;;;;;;;;;4959672;28;20113;-80
2022/09/10 13:20:49;;;;;;;10.32;5.75;;;;;;;;;;4958994;29;20031;-79
2022/09/10 13:23:20;;;;;;;8.38;4.70;;;;;;;;;;4961864;29;20039;-77
2022/09/10 13:25:52;;;;;;;4.47;2.70;;;;;;;;;;4966049;29;20102;-81
2022/09/10 13:28:31;;;;;;;2.55;2.10;;;;;;;;;;4963259;29;20038;-77
2022/09/10 13:31:18;;;;;;;5.70;1.95;;;;;;;;;;4957005;29;20038;-77
2022/09/10 13:33:52;;;;;;;7.05;2.90;;;;;;;;;;4955485;29;20035;-74
2022/09/10 13:36:36;;;;;;;2.20;2.00;;;;;;;;;;4956029;29;20140;-75
2022/09/10 13:39:22;;;;;;;3.83;2.15;;;;;;;;;;4956437;28;20385;-75
2022/09/10 13:41:55;;;;;;;3.15;2.08;;;;;;;;;;4946648;29;20421;-75
2022/09/10 13:44:31;;;;;;;3.60;2.33;;;;;;;;;;4957727;28;20031;-75
2022/09/10 13:46:58;;;;;;;2.33;2.13;;;;;;;;;;4961063;29;20031;-78
2022/09/10 13:49:36;;;;;;;2.90;1.90;;;;;;;;;;4960982;28;20055;-75
2022/09/10 13:52:06;;;;;;;5.47;2.30;;;;;;;;;;4960532;29;20038;-76
2022/09/10 13:54:33;;;;;;;2.50;2.00;;;;;;;;;;4966304;29;20100;-75
2022/09/10 13:57:03;;;;;;;4.22;2.40;;;;;;;;;;4967615;29;20035;-80
2022/09/10 13:59:30;;;;;;;4.85;2.10;;;;;;;;;;4959578;29;20023;-75
2022/09/10 14:02:00;;;;;;;2.53;2.10;;;;;;;;;;4965989;29;20055;-78
2022/09/10 14:04:35;;;;;;;3.63;2.00;;;;;;;;;;4964151;29;20035;-77
2022/09/10 14:07:06;;;;;;;2.50;1.90;;;;;;;;;;4963912;28;20078;-75
2022/09/10 14:09:36;;;;;;;5.15;1.88;;;;;;;;;;4967610;29;20028;-76
2022/09/10 14:12:04;;;;;;;2.65;1.80;;;;;;;;;;4969873;29;20038;-80
2022/09/10 14:14:34;;;;;;;3.28;1.80;;;;;;;;;;4967450;28;20023;-76
2022/09/10 14:17:14;;;;;;;1.98;1.70;;;;;;;;;;4966831;29;20031;-76
2022/09/10 14:20:00;;;;;;;2.13;1.88;;;;;;;;;;4962513;29;20023;-77
2022/09/10 14:22:27;;;;;;;3.05;1.83;;;;;;;;;;4964053;29;20113;-77
2022/09/10 14:25:01;;;;;;;3.33;1.85;;;;;;;;;;4957469;29;20122;-80
2022/09/10 14:27:52;;;;;;;3.60;1.80;;;;;;;;;;4950883;29;20038;-76
2022/09/10 14:30:35;;;;;;;3.67;1.83;;;;;;;;;;4966266;28;20055;-78
2022/09/10 14:33:20;;;;;;;2.42;1.90;;;;;;;;;;4946205;29;20051;-80
2022/09/10 14:35:48;;;;;;;1.88;1.70;;;;;;;;;;4961571;29;20038;-79
2022/09/10 14:38:35;;;;;;;6.72;1.85;;;;;;;;;;4969043;29;20027;-78
2022/09/10 14:41:10;;;;;;;2.67;1.65;;;;;;;;;;4968738;28;20156;-75
2022/09/10 14:43:37;;;;;;;2.10;1.90;;;;;;;;;;4982725;28;20556;-77
2022/09/10 14:46:06;;;;;;;4.25;2.40;;;;;;;;;;4968932;28;20027;-78
2022/09/10 14:48:37;;;;;;;5.65;2.40;;;;;;;;;;4954295;28;20032;-75
2022/09/10 14:51:16;;;;;;;11.52;7.40;;;;;;;;;;4961317;28;20035;-74
2022/09/10 14:53:45;;;;;;;22.23;16.50;;;;;;;;;;4969300;28;20027;-75
2022/09/10 14:56:31;;;;;;;6.38;5.22;;;;;;;;;;4978380;28;20019;-75
2022/09/10 14:59:20;;;;;;;4.63;2.80;;;;;;;;;;4981034;28;20035;-75
2022/09/10 15:01:53;;;;;;;6.07;2.30;;;;;;;;;;4978937;28;20062;-73
2022/09/10 15:04:30;;;;;;;6.45;2.40;;;;;;;;;;4981115;28;20029;-74
2022/09/10 15:07:01;;;;;;;3.30;2.08;;;;;;;;;;4936313;29;20066;-74
2022/09/10 15:09:30;;;;;;;5.38;2.97;;;;;;;;;;4981074;28;20079;-74
2022/09/10 15:12:08;;;;;;;2.65;1.90;;;;;;;;;;4979527;28;20020;-74
2022/09/10 15:14:34;;;;;;;5.90;2.63;;;;;;;;;;4977209;28;20027;-73
2022/09/10 15:17:11;;;;;;;9.05;3.67;;;;;;;;;;4980584;28;20044;-74
2022/09/10 15:19:40;;;;;;;5.95;2.22;;;;;;;;;;4966022;28;20027;-74
2022/09/10 15:22:06;;;;;;;5.03;2.50;;;;;;;;;;4979864;28;20047;-74
2022/09/10 15:24:33;;;;;;;5.03;2.00;;;;;;;;;;4980959;28;20016;-74
2022/09/10 15:27:01;;;;;;;4.75;2.20;;;;;;;;;;4979642;28;20007;-74
2022/09/10 15:29:40;;;;;;;6.80;2.33;;;;;;;;;;4947837;28;20099;-73
2022/09/10 15:32:06;;;;;;;1.98;1.50;;;;;;;;;;4980987;28;20008;-73
2022/09/10 15:34:36;;;;;;;3.20;1.80;;;;;;;;;;4980931;28;20016;-75
2022/09/10 15:37:19;;;;;;;2.92;1.83;;;;;;;;;;4979364;28;20036;-74
2022/09/10 15:39:50;;;;;;;4.63;2.08;;;;;;;;;;4977906;28;20028;-75
2022/09/10 15:42:38;;;;;;;2.25;2.05;;;;;;;;;;4980551;28;20079;-74
2022/09/10 15:45:26;;;;;;;2.60;1.80;;;;;;;;;;4977346;28;20015;-74
2022/09/10 15:47:57;;;;;;;5.28;2.55;;;;;;;;;;4978856;28;20039;-74
2022/09/10 15:50:23;;;;;;;3.25;2.03;;;;;;;;;;4975133;28;20444;-74
2022/09/10 15:52:49;;;;;;;4.18;2.10;;;;;;;;;;4979456;28;20023;-74
2022/09/10 15:55:18;;;;;;;4.05;2.00;;;;;;;;;;4962115;28;20038;-74
2022/09/10 15:57:54;;;;;;;3.33;1.88;;;;;;;;;;4942741;29;20098;-74
2022/09/10 16:00:23;;;;;;;3.17;1.88;;;;;;;;;;4941487;29;20032;-74
2022/09/10 16:03:10;;;;;;;2.13;1.60;;;;;;;;;;4916498;29;20056;-74
2022/09/10 16:05:42;;;;;;;6.95;2.00;;;;;;;;;;4922561;29;20140;-74
2022/09/10 16:08:11;;;;;;;4.38;1.83;;;;;;;;;;4921125;29;20104;-74
2022/09/10 16:10:40;;;;;;;4.07;2.10;;;;;;;;;;4913392;29;20009;-74
2022/09/10 16:16:10;;;;;;;4.40;1.70;;;;;;;;;;4898107;29;20171;-74
2022/09/10 16:18:36;;;;;;;6.18;2.13;;;;;;;;;;4903647;29;20055;-74
2022/09/10 16:21:10;;;;;;;5.13;1.90;;;;;;;;;;4880398;29;20047;-74
2022/09/10 16:23:36;;;;;;;;;;;;;;;;;;4884434;29;20116;-74